sensor_id;sensor_type;location;lat;lon;timestamp;P1;durP1;ratioP1;P2;durP2;ratioP2
4766;SDS011;2397;53.576;9.746;2023-04-01T00:00:55;6.87;;;4.60;;
4766;SDS011;2397;53.576;9.746;2023-04-01T00:03:24;9.60;;;5.33;;
4766;SDS011;2397;53.576;9.746;2023-04-01T00:05:56;8.03;;;4.70;;
4766;SDS011;2397;53.576;9.746;2023-04-01T00:08:24;8.60;;;4.57;;
4766;SDS011;2397;53.576;9.746;2023-04-01T00:10:51;8.20;;;4.80;;
4766;SDS011;2397;53.576;9.746;2023-04-01T00:13:19;10.33;;;4.50;;
4766;SDS011;2397;53.576;9.746;2023-04-01T00:15:46;7.23;;;5.10;;
4766;SDS011;2397;53.576;9.746;2023-04-01T00:18:14;7.40;;;4.40;;
4766;SDS011;2397;53.576;9.746;2023-04-01T00:20:45;10.47;;;5.33;;
4766;SDS011;2397;53.576;9.746;2023-04-01T00:23:13;4.83;;;4.30;;
4766;SDS011;2397;53.576;9.746;2023-04-01T00:25:40;7.27;;;4.30;;
4766;SDS011;2397;53.576;9.746;2023-04-01T00:28:07;4.90;;;4.10;;
4766;SDS011;2397;53.576;9.746;2023-04-01T00:30:35;6.37;;;4.13;;
4766;SDS011;2397;53.576;9.746;2023-04-01T00:33:02;10.50;;;4.33;;
4766;SDS011;2397;53.576;9.746;2023-04-01T00:35:29;6.63;;;4.70;;
4766;SDS011;2397;53.576;9.746;2023-04-01T00:37:56;5.23;;;4.20;;
4766;SDS011;2397;53.576;9.746;2023-04-01T00:40:25;9.77;;;4.60;;
4766;SDS011;2397;53.576;9.746;2023-04-01T00:42:52;8.20;;;4.60;;
4766;SDS011;2397;53.576;9.746;2023-04-01T00:45:29;5.27;;;4.23;;
4766;SDS011;2397;53.576;9.746;2023-04-01T00:48:03;5.70;;;3.67;;
4766;SDS011;2397;53.576;9.746;2023-04-01T00:50:33;4.73;;;3.53;;
4766;SDS011;2397;53.576;9.746;2023-04-01T00:53:02;5.10;;;4.30;;
4766;SDS011;2397;53.576;9.746;2023-04-01T00:55:30;8.87;;;4.77;;
4766;SDS011;2397;53.576;9.746;2023-04-01T00:58:00;6.37;;;4.77;;
4766;SDS011;2397;53.576;9.746;2023-04-01T01:00:29;6.33;;;4.07;;
4766;SDS011;2397;53.576;9.746;2023-04-01T01:02:57;7.70;;;4.53;;
4766;SDS011;2397;53.576;9.746;2023-04-01T01:05:36;6.47;;;4.03;;
4766;SDS011;2397;53.576;9.746;2023-04-01T01:08:23;7.30;;;4.37;;
4766;SDS011;2397;53.576;9.746;2023-04-01T01:11:04;6.40;;;4.77;;
4766;SDS011;2397;53.576;9.746;2023-04-01T01:13:36;7.23;;;5.30;;
4766;SDS011;2397;53.576;9.746;2023-04-01T01:27:09;8.50;;;5.00;;
4766;SDS011;2397;53.576;9.746;2023-04-01T01:32:38;7.47;;;4.80;;
4766;SDS011;2397;53.576;9.746;2023-04-01T01:35:26;9.43;;;4.70;;
4766;SDS011;2397;53.576;9.746;2023-04-01T01:38:06;10.83;;;4.80;;
4766;SDS011;2397;53.576;9.746;2023-04-01T01:40:38;9.30;;;5.33;;
4766;SDS011;2397;53.576;9.746;2023-04-01T01:43:09;6.00;;;5.43;;
4766;SDS011;2397;53.576;9.746;2023-04-01T01:45:40;8.40;;;5.00;;
4766;SDS011;2397;53.576;9.746;2023-04-01T01:48:11;4.83;;;4.43;;
4766;SDS011;2397;53.576;9.746;2023-04-01T01:50:38;8.67;;;5.60;;
4766;SDS011;2397;53.576;9.746;2023-04-01T01:53:10;10.63;;;5.37;;
4766;SDS011;2397;53.576;9.746;2023-04-01T01:55:38;6.40;;;5.30;;
4766;SDS011;2397;53.576;9.746;2023-04-01T02:00:45;7.13;;;5.63;;
4766;SDS011;2397;53.576;9.746;2023-04-01T02:03:15;6.27;;;5.67;;
4766;SDS011;2397;53.576;9.746;2023-04-01T02:05:43;9.90;;;5.80;;
4766;SDS011;2397;53.576;9.746;2023-04-01T02:08:12;6.97;;;6.07;;
4766;SDS011;2397;53.576;9.746;2023-04-01T02:10:45;8.97;;;5.33;;
4766;SDS011;2397;53.576;9.746;2023-04-01T02:13:34;14.03;;;6.60;;
4766;SDS011;2397;53.576;9.746;2023-04-01T02:16:11;10.10;;;6.43;;
4766;SDS011;2397;53.576;9.746;2023-04-01T02:18:42;10.40;;;4.77;;
4766;SDS011;2397;53.576;9.746;2023-04-01T02:21:11;7.30;;;5.30;;
4766;SDS011;2397;53.576;9.746;2023-04-01T02:23:39;7.23;;;5.33;;
4766;SDS011;2397;53.576;9.746;2023-04-01T02:26:07;6.00;;;5.13;;
4766;SDS011;2397;53.576;9.746;2023-04-01T02:28:36;8.40;;;5.30;;
4766;SDS011;2397;53.576;9.746;2023-04-01T02:31:04;11.17;;;5.90;;
4766;SDS011;2397;53.576;9.746;2023-04-01T02:33:32;7.97;;;5.47;;
4766;SDS011;2397;53.576;9.746;2023-04-01T02:35:59;6.60;;;5.73;;
4766;SDS011;2397;53.576;9.746;2023-04-01T02:38:26;7.73;;;6.03;;
4766;SDS011;2397;53.576;9.746;2023-04-01T02:40:56;6.77;;;5.50;;
4766;SDS011;2397;53.576;9.746;2023-04-01T02:43:27;6.30;;;5.70;;
4766;SDS011;2397;53.576;9.746;2023-04-01T02:45:54;6.97;;;5.87;;
4766;SDS011;2397;53.576;9.746;2023-04-01T02:48:22;9.17;;;6.80;;
4766;SDS011;2397;53.576;9.746;2023-04-01T02:50:48;6.50;;;5.90;;
4766;SDS011;2397;53.576;9.746;2023-04-01T02:53:15;8.20;;;6.10;;
4766;SDS011;2397;53.576;9.746;2023-04-01T02:55:42;10.50;;;6.40;;
4766;SDS011;2397;53.576;9.746;2023-04-01T02:58:09;8.97;;;6.47;;
4766;SDS011;2397;53.576;9.746;2023-04-01T03:00:35;9.60;;;6.30;;
4766;SDS011;2397;53.576;9.746;2023-04-01T03:03:02;8.37;;;7.33;;
4766;SDS011;2397;53.576;9.746;2023-04-01T03:05:29;8.50;;;7.43;;
4766;SDS011;2397;53.576;9.746;2023-04-01T03:07:57;11.17;;;6.27;;
4766;SDS011;2397;53.576;9.746;2023-04-01T03:10:23;11.97;;;8.27;;
4766;SDS011;2397;53.576;9.746;2023-04-01T03:12:50;8.97;;;8.07;;
4766;SDS011;2397;53.576;9.746;2023-04-01T03:15:17;10.23;;;8.00;;
4766;SDS011;2397;53.576;9.746;2023-04-01T03:17:43;12.50;;;7.90;;
4766;SDS011;2397;53.576;9.746;2023-04-01T03:20:11;10.83;;;8.23;;
4766;SDS011;2397;53.576;9.746;2023-04-01T03:22:38;9.87;;;8.00;;
4766;SDS011;2397;53.576;9.746;2023-04-01T03:25:08;12.80;;;9.03;;
4766;SDS011;2397;53.576;9.746;2023-04-01T03:27:37;13.40;;;7.40;;
4766;SDS011;2397;53.576;9.746;2023-04-01T03:30:05;11.93;;;8.47;;
4766;SDS011;2397;53.576;9.746;2023-04-01T03:32:39;9.70;;;7.60;;
4766;SDS011;2397;53.576;9.746;2023-04-01T03:35:06;14.00;;;9.10;;
4766;SDS011;2397;53.576;9.746;2023-04-01T03:37:33;12.73;;;8.77;;
4766;SDS011;2397;53.576;9.746;2023-04-01T03:40:00;13.30;;;8.63;;
4766;SDS011;2397;53.576;9.746;2023-04-01T03:42:26;12.90;;;8.80;;
4766;SDS011;2397;53.576;9.746;2023-04-01T03:44:53;18.90;;;8.47;;
4766;SDS011;2397;53.576;9.746;2023-04-01T03:47:20;14.40;;;9.13;;
4766;SDS011;2397;53.576;9.746;2023-04-01T03:49:46;11.30;;;8.13;;
4766;SDS011;2397;53.576;9.746;2023-04-01T03:52:13;9.53;;;8.53;;
4766;SDS011;2397;53.576;9.746;2023-04-01T03:54:39;11.87;;;8.70;;
4766;SDS011;2397;53.576;9.746;2023-04-01T03:57:06;10.73;;;8.20;;
4766;SDS011;2397;53.576;9.746;2023-04-01T03:59:33;15.37;;;9.20;;
4766;SDS011;2397;53.576;9.746;2023-04-01T04:02:00;11.77;;;9.70;;
4766;SDS011;2397;53.576;9.746;2023-04-01T04:04:27;11.63;;;8.27;;
4766;SDS011;2397;53.576;9.746;2023-04-01T04:06:54;14.33;;;8.97;;
4766;SDS011;2397;53.576;9.746;2023-04-01T04:09:22;9.87;;;7.87;;
4766;SDS011;2397;53.576;9.746;2023-04-01T04:11:49;14.10;;;8.27;;
4766;SDS011;2397;53.576;9.746;2023-04-01T04:14:16;9.53;;;8.33;;
4766;SDS011;2397;53.576;9.746;2023-04-01T04:16:44;9.10;;;8.20;;
4766;SDS011;2397;53.576;9.746;2023-04-01T04:19:11;10.03;;;7.87;;
4766;SDS011;2397;53.576;9.746;2023-04-01T04:21:39;12.30;;;9.13;;
4766;SDS011;2397;53.576;9.746;2023-04-01T04:24:06;16.10;;;8.73;;
4766;SDS011;2397;53.576;9.746;2023-04-01T04:26:51;11.77;;;8.87;;
4766;SDS011;2397;53.576;9.746;2023-04-01T04:29:18;10.17;;;8.47;;
4766;SDS011;2397;53.576;9.746;2023-04-01T04:31:45;13.17;;;8.30;;
4766;SDS011;2397;53.576;9.746;2023-04-01T04:34:12;14.80;;;9.47;;
4766;SDS011;2397;53.576;9.746;2023-04-01T04:36:38;13.10;;;8.77;;
4766;SDS011;2397;53.576;9.746;2023-04-01T04:39:05;12.67;;;8.60;;
4766;SDS011;2397;53.576;9.746;2023-04-01T04:41:33;14.83;;;9.30;;
4766;SDS011;2397;53.576;9.746;2023-04-01T04:44:03;14.80;;;10.00;;
4766;SDS011;2397;53.576;9.746;2023-04-01T04:46:31;14.03;;;9.07;;
4766;SDS011;2397;53.576;9.746;2023-04-01T04:49:08;15.47;;;9.60;;
4766;SDS011;2397;53.576;9.746;2023-04-01T04:51:35;13.43;;;9.63;;
4766;SDS011;2397;53.576;9.746;2023-04-01T04:54:02;12.43;;;9.30;;
4766;SDS011;2397;53.576;9.746;2023-04-01T04:56:47;13.90;;;9.73;;
4766;SDS011;2397;53.576;9.746;2023-04-01T04:59:14;12.80;;;9.63;;
4766;SDS011;2397;53.576;9.746;2023-04-01T05:01:50;13.47;;;9.57;;
4766;SDS011;2397;53.576;9.746;2023-04-01T05:04:17;11.10;;;8.50;;
4766;SDS011;2397;53.576;9.746;2023-04-01T05:06:43;12.40;;;7.93;;
4766;SDS011;2397;53.576;9.746;2023-04-01T05:09:11;9.73;;;8.40;;
4766;SDS011;2397;53.576;9.746;2023-04-01T05:11:38;12.53;;;8.60;;
4766;SDS011;2397;53.576;9.746;2023-04-01T05:14:05;15.40;;;9.30;;
4766;SDS011;2397;53.576;9.746;2023-04-01T05:16:32;13.13;;;9.47;;
4766;SDS011;2397;53.576;9.746;2023-04-01T05:18:59;13.13;;;9.97;;
4766;SDS011;2397;53.576;9.746;2023-04-01T05:21:26;13.03;;;9.37;;
4766;SDS011;2397;53.576;9.746;2023-04-01T05:23:54;11.80;;;8.37;;
4766;SDS011;2397;53.576;9.746;2023-04-01T05:26:23;14.07;;;9.07;;
4766;SDS011;2397;53.576;9.746;2023-04-01T05:28:49;9.60;;;7.93;;
4766;SDS011;2397;53.576;9.746;2023-04-01T05:31:16;5.00;;;4.60;;
4766;SDS011;2397;53.576;9.746;2023-04-01T05:33:45;3.03;;;2.60;;
4766;SDS011;2397;53.576;9.746;2023-04-01T05:36:13;2.87;;;2.57;;
4766;SDS011;2397;53.576;9.746;2023-04-01T05:38:41;4.07;;;1.80;;
4766;SDS011;2397;53.576;9.746;2023-04-01T05:41:11;1.50;;;1.40;;
4766;SDS011;2397;53.576;9.746;2023-04-01T05:43:41;1.40;;;1.30;;
4766;SDS011;2397;53.576;9.746;2023-04-01T05:46:43;2.30;;;1.00;;
4766;SDS011;2397;53.576;9.746;2023-04-01T05:49:16;1.40;;;1.30;;
4766;SDS011;2397;53.576;9.746;2023-04-01T05:51:42;3.50;;;1.40;;
4766;SDS011;2397;53.576;9.746;2023-04-01T05:54:09;1.60;;;1.50;;
4766;SDS011;2397;53.576;9.746;2023-04-01T05:56:36;2.07;;;1.40;;
4766;SDS011;2397;53.576;9.746;2023-04-01T05:59:03;2.13;;;1.10;;
4766;SDS011;2397;53.576;9.746;2023-04-01T06:01:29;1.33;;;1.23;;
4766;SDS011;2397;53.576;9.746;2023-04-01T06:03:56;2.20;;;1.50;;
4766;SDS011;2397;53.576;9.746;2023-04-01T06:06:25;1.37;;;1.27;;
4766;SDS011;2397;53.576;9.746;2023-04-01T06:09:13;1.80;;;1.70;;
4766;SDS011;2397;53.576;9.746;2023-04-01T06:12:04;1.30;;;1.20;;
4766;SDS011;2397;53.576;9.746;2023-04-01T06:18:03;1.20;;;1.10;;
4766;SDS011;2397;53.576;9.746;2023-04-01T06:20:51;1.47;;;1.33;;
4766;SDS011;2397;53.576;9.746;2023-04-01T06:25:57;2.63;;;1.93;;
4766;SDS011;2397;53.576;9.746;2023-04-01T06:31:45;1.70;;;1.60;;
4766;SDS011;2397;53.576;9.746;2023-04-01T06:37:17;1.80;;;1.70;;
4766;SDS011;2397;53.576;9.746;2023-04-01T06:45:25;1.63;;;1.53;;
4766;SDS011;2397;53.576;9.746;2023-04-01T06:48:25;1.70;;;1.60;;
4766;SDS011;2397;53.576;9.746;2023-04-01T06:58:21;1.73;;;1.20;;
4766;SDS011;2397;53.576;9.746;2023-04-01T07:00:50;1.43;;;1.33;;
4766;SDS011;2397;53.576;9.746;2023-04-01T07:03:21;1.40;;;1.30;;
4766;SDS011;2397;53.576;9.746;2023-04-01T07:06:05;2.20;;;1.40;;
4766;SDS011;2397;53.576;9.746;2023-04-01T07:08:41;2.30;;;1.30;;
4766;SDS011;2397;53.576;9.746;2023-04-01T07:11:09;1.10;;;1.00;;
4766;SDS011;2397;53.576;9.746;2023-04-01T07:14:02;1.50;;;1.40;;
4766;SDS011;2397;53.576;9.746;2023-04-01T07:16:47;1.43;;;1.33;;
4766;SDS011;2397;53.576;9.746;2023-04-01T07:19:22;0.90;;;0.90;;
4766;SDS011;2397;53.576;9.746;2023-04-01T07:22:09;1.23;;;1.13;;
4766;SDS011;2397;53.576;9.746;2023-04-01T07:25:07;1.37;;;1.27;;
4766;SDS011;2397;53.576;9.746;2023-04-01T07:27:40;1.20;;;1.10;;
4766;SDS011;2397;53.576;9.746;2023-04-01T07:30:15;1.43;;;1.33;;
4766;SDS011;2397;53.576;9.746;2023-04-01T07:33:01;1.00;;;1.00;;
4766;SDS011;2397;53.576;9.746;2023-04-01T07:35:38;1.00;;;0.90;;
4766;SDS011;2397;53.576;9.746;2023-04-01T07:40:52;1.03;;;1.00;;
4766;SDS011;2397;53.576;9.746;2023-04-01T07:43:36;0.80;;;0.80;;
4766;SDS011;2397;53.576;9.746;2023-04-01T07:49:11;1.20;;;1.10;;
4766;SDS011;2397;53.576;9.746;2023-04-01T07:51:50;1.50;;;1.40;;
4766;SDS011;2397;53.576;9.746;2023-04-01T07:54:22;1.50;;;1.40;;
4766;SDS011;2397;53.576;9.746;2023-04-01T07:57:08;1.20;;;1.10;;
4766;SDS011;2397;53.576;9.746;2023-04-01T08:06:19;1.30;;;1.20;;
4766;SDS011;2397;53.576;9.746;2023-04-01T08:21:42;1.90;;;1.53;;
4766;SDS011;2397;53.576;9.746;2023-04-01T08:24:16;1.57;;;1.47;;
4766;SDS011;2397;53.576;9.746;2023-04-01T08:26:56;1.43;;;1.33;;
4766;SDS011;2397;53.576;9.746;2023-04-01T08:32:23;1.20;;;1.10;;
4766;SDS011;2397;53.576;9.746;2023-04-01T08:35:06;1.70;;;1.60;;
4766;SDS011;2397;53.576;9.746;2023-04-01T08:37:39;1.40;;;1.30;;
4766;SDS011;2397;53.576;9.746;2023-04-01T08:40:25;1.83;;;1.57;;
4766;SDS011;2397;53.576;9.746;2023-04-01T08:46:06;1.37;;;1.27;;
4766;SDS011;2397;53.576;9.746;2023-04-01T08:48:50;1.17;;;1.07;;
4766;SDS011;2397;53.576;9.746;2023-04-01T08:54:22;1.50;;;1.40;;
4766;SDS011;2397;53.576;9.746;2023-04-01T08:57:28;2.60;;;1.20;;
4766;SDS011;2397;53.576;9.746;2023-04-01T09:00:30;1.20;;;1.00;;
4766;SDS011;2397;53.576;9.746;2023-04-01T09:03:36;1.60;;;1.50;;
4766;SDS011;2397;53.576;9.746;2023-04-01T09:06:21;1.30;;;1.20;;
4766;SDS011;2397;53.576;9.746;2023-04-01T09:11:59;1.30;;;1.20;;
4766;SDS011;2397;53.576;9.746;2023-04-01T09:14:52;1.20;;;1.10;;
4766;SDS011;2397;53.576;9.746;2023-04-01T09:20:17;1.57;;;1.13;;
4766;SDS011;2397;53.576;9.746;2023-04-01T09:33:58;1.93;;;1.33;;
4766;SDS011;2397;53.576;9.746;2023-04-01T09:37:09;1.30;;;1.20;;
4766;SDS011;2397;53.576;9.746;2023-04-01T09:43:03;1.10;;;1.00;;
4766;SDS011;2397;53.576;9.746;2023-04-01T09:48:30;1.40;;;1.10;;
4766;SDS011;2397;53.576;9.746;2023-04-01T09:57:22;1.50;;;1.40;;
4766;SDS011;2397;53.576;9.746;2023-04-01T10:00:21;1.77;;;1.67;;
4766;SDS011;2397;53.576;9.746;2023-04-01T10:03:13;1.57;;;1.10;;
4766;SDS011;2397;53.576;9.746;2023-04-01T10:08:43;1.27;;;1.17;;
4766;SDS011;2397;53.576;9.746;2023-04-01T10:13:58;1.53;;;1.30;;
4766;SDS011;2397;53.576;9.746;2023-04-01T10:16:58;1.97;;;1.77;;
4766;SDS011;2397;53.576;9.746;2023-04-01T10:19:51;1.30;;;1.20;;
4766;SDS011;2397;53.576;9.746;2023-04-01T10:25:18;1.40;;;1.10;;
4766;SDS011;2397;53.576;9.746;2023-04-01T10:30:54;1.30;;;1.20;;
4766;SDS011;2397;53.576;9.746;2023-04-01T10:39:08;1.00;;;1.00;;
4766;SDS011;2397;53.576;9.746;2023-04-01T10:45:21;1.00;;;1.00;;
4766;SDS011;2397;53.576;9.746;2023-04-01T10:56:54;0.93;;;0.93;;
4766;SDS011;2397;53.576;9.746;2023-04-01T11:00:07;1.17;;;1.07;;
4766;SDS011;2397;53.576;9.746;2023-04-01T11:11:52;1.30;;;1.00;;
4766;SDS011;2397;53.576;9.746;2023-04-01T11:14:44;5.30;;;1.23;;
4766;SDS011;2397;53.576;9.746;2023-04-01T11:17:55;1.30;;;1.20;;
4766;SDS011;2397;53.576;9.746;2023-04-01T11:27:15;0.90;;;0.90;;
4766;SDS011;2397;53.576;9.746;2023-04-01T11:30:14;1.10;;;1.00;;
4766;SDS011;2397;53.576;9.746;2023-04-01T11:33:04;1.20;;;1.10;;
4766;SDS011;2397;53.576;9.746;2023-04-01T11:38:24;1.43;;;1.33;;
4766;SDS011;2397;53.576;9.746;2023-04-01T11:41:25;1.10;;;1.00;;
4766;SDS011;2397;53.576;9.746;2023-04-01T11:44:21;1.33;;;1.20;;
4766;SDS011;2397;53.576;9.746;2023-04-01T11:49:59;1.20;;;1.10;;
4766;SDS011;2397;53.576;9.746;2023-04-01T11:52:51;1.60;;;1.50;;
4766;SDS011;2397;53.576;9.746;2023-04-01T11:55:24;1.77;;;1.63;;
4766;SDS011;2397;53.576;9.746;2023-04-01T12:03:30;4.50;;;1.60;;
4766;SDS011;2397;53.576;9.746;2023-04-01T12:11:29;6.13;;;1.80;;
4766;SDS011;2397;53.576;9.746;2023-04-01T12:14:08;1.93;;;1.83;;
4766;SDS011;2397;53.576;9.746;2023-04-01T12:16:59;2.57;;;2.37;;
4766;SDS011;2397;53.576;9.746;2023-04-01T12:19:38;2.43;;;2.23;;
4766;SDS011;2397;53.576;9.746;2023-04-01T12:30:51;3.17;;;2.87;;
4766;SDS011;2397;53.576;9.746;2023-04-01T12:36:15;3.40;;;2.57;;
4766;SDS011;2397;53.576;9.746;2023-04-01T12:47:15;3.70;;;3.00;;
4766;SDS011;2397;53.576;9.746;2023-04-01T12:50:05;4.03;;;3.70;;
4766;SDS011;2397;53.576;9.746;2023-04-01T12:55:44;3.77;;;3.47;;
4766;SDS011;2397;53.576;9.746;2023-04-01T12:58:25;7.10;;;4.40;;
4766;SDS011;2397;53.576;9.746;2023-04-01T13:01:09;4.27;;;3.30;;
4766;SDS011;2397;53.576;9.746;2023-04-01T13:04:13;3.70;;;3.40;;
4766;SDS011;2397;53.576;9.746;2023-04-01T13:09:46;4.10;;;2.90;;
4766;SDS011;2397;53.576;9.746;2023-04-01T13:14:54;4.30;;;3.20;;
4766;SDS011;2397;53.576;9.746;2023-04-01T13:17:36;4.43;;;4.03;;
4766;SDS011;2397;53.576;9.746;2023-04-01T13:20:16;4.43;;;4.03;;
4766;SDS011;2397;53.576;9.746;2023-04-01T13:23:10;4.60;;;4.17;;
4766;SDS011;2397;53.576;9.746;2023-04-01T13:29:09;4.07;;;3.70;;
4766;SDS011;2397;53.576;9.746;2023-04-01T13:34:20;6.10;;;4.10;;
4766;SDS011;2397;53.576;9.746;2023-04-01T13:39:36;6.17;;;4.17;;
4766;SDS011;2397;53.576;9.746;2023-04-01T13:42:28;4.03;;;3.30;;
4766;SDS011;2397;53.576;9.746;2023-04-01T13:45:19;4.03;;;3.27;;
4766;SDS011;2397;53.576;9.746;2023-04-01T14:05:07;6.17;;;3.73;;
4766;SDS011;2397;53.576;9.746;2023-04-01T14:07:56;4.50;;;3.37;;
4766;SDS011;2397;53.576;9.746;2023-04-01T14:16:25;4.70;;;3.57;;
4766;SDS011;2397;53.576;9.746;2023-04-01T14:18:59;4.00;;;3.57;;
4766;SDS011;2397;53.576;9.746;2023-04-01T14:21:37;4.20;;;3.80;;
4766;SDS011;2397;53.576;9.746;2023-04-01T14:24:23;4.23;;;3.50;;
4766;SDS011;2397;53.576;9.746;2023-04-01T14:30:07;4.20;;;3.80;;
4766;SDS011;2397;53.576;9.746;2023-04-01T14:35:56;7.23;;;3.93;;
4766;SDS011;2397;53.576;9.746;2023-04-01T14:39:00;4.37;;;3.90;;
4766;SDS011;2397;53.576;9.746;2023-04-01T14:41:44;5.00;;;3.27;;
4766;SDS011;2397;53.576;9.746;2023-04-01T14:50:14;10.10;;;4.20;;
4766;SDS011;2397;53.576;9.746;2023-04-01T14:52:46;6.43;;;4.43;;
4766;SDS011;2397;53.576;9.746;2023-04-01T14:55:23;6.17;;;4.03;;
4766;SDS011;2397;53.576;9.746;2023-04-01T14:58:17;6.03;;;4.20;;
4766;SDS011;2397;53.576;9.746;2023-04-01T15:00:50;4.83;;;3.50;;
4766;SDS011;2397;53.576;9.746;2023-04-01T15:03:36;6.80;;;5.00;;
4766;SDS011;2397;53.576;9.746;2023-04-01T15:06:25;4.33;;;3.93;;
4766;SDS011;2397;53.576;9.746;2023-04-01T15:12:12;5.30;;;4.30;;
4766;SDS011;2397;53.576;9.746;2023-04-01T15:14:51;6.60;;;4.90;;
4766;SDS011;2397;53.576;9.746;2023-04-01T15:17:27;5.80;;;4.23;;
4766;SDS011;2397;53.576;9.746;2023-04-01T15:20:11;5.40;;;3.93;;
4766;SDS011;2397;53.576;9.746;2023-04-01T15:25:31;7.30;;;4.47;;
4766;SDS011;2397;53.576;9.746;2023-04-01T15:33:54;4.37;;;3.80;;
4766;SDS011;2397;53.576;9.746;2023-04-01T15:45:16;5.27;;;3.83;;
4766;SDS011;2397;53.576;9.746;2023-04-01T15:48:11;7.50;;;4.23;;
4766;SDS011;2397;53.576;9.746;2023-04-01T15:53:49;7.70;;;4.60;;
4766;SDS011;2397;53.576;9.746;2023-04-01T16:11:06;6.77;;;4.53;;
4766;SDS011;2397;53.576;9.746;2023-04-01T16:16:45;6.43;;;4.83;;
4766;SDS011;2397;53.576;9.746;2023-04-01T16:22:40;6.50;;;4.57;;
4766;SDS011;2397;53.576;9.746;2023-04-01T16:25:31;6.80;;;4.37;;
4766;SDS011;2397;53.576;9.746;2023-04-01T16:30:55;5.00;;;4.43;;
4766;SDS011;2397;53.576;9.746;2023-04-01T16:33:38;5.40;;;3.90;;
4766;SDS011;2397;53.576;9.746;2023-04-01T16:42:09;4.47;;;4.10;;
4766;SDS011;2397;53.576;9.746;2023-04-01T16:44:57;5.50;;;4.83;;
4766;SDS011;2397;53.576;9.746;2023-04-01T16:47:35;6.80;;;5.07;;
4766;SDS011;2397;53.576;9.746;2023-04-01T16:55:42;7.20;;;4.43;;
4766;SDS011;2397;53.576;9.746;2023-04-01T16:58:21;4.90;;;4.00;;
4766;SDS011;2397;53.576;9.746;2023-04-01T17:00:53;7.27;;;5.13;;
4766;SDS011;2397;53.576;9.746;2023-04-01T17:03:36;7.90;;;4.20;;
4766;SDS011;2397;53.576;9.746;2023-04-01T17:06:12;8.00;;;4.70;;
4766;SDS011;2397;53.576;9.746;2023-04-01T17:22:49;7.17;;;4.00;;
4766;SDS011;2397;53.576;9.746;2023-04-01T17:25:44;6.43;;;4.10;;
4766;SDS011;2397;53.576;9.746;2023-04-01T17:28:31;10.60;;;4.50;;
4766;SDS011;2397;53.576;9.746;2023-04-01T17:33:57;6.10;;;3.80;;
4766;SDS011;2397;53.576;9.746;2023-04-01T17:39:24;5.00;;;3.73;;
4766;SDS011;2397;53.576;9.746;2023-04-01T17:42:15;5.17;;;4.37;;
4766;SDS011;2397;53.576;9.746;2023-04-01T17:47:58;4.40;;;3.60;;
4766;SDS011;2397;53.576;9.746;2023-04-01T17:56:14;6.63;;;4.20;;
4766;SDS011;2397;53.576;9.746;2023-04-01T18:06:50;10.07;;;5.87;;
4766;SDS011;2397;53.576;9.746;2023-04-01T18:09:48;15.10;;;7.77;;
4766;SDS011;2397;53.576;9.746;2023-04-01T18:18:17;6.07;;;4.77;;
4766;SDS011;2397;53.576;9.746;2023-04-01T18:20:54;4.10;;;3.40;;
4766;SDS011;2397;53.576;9.746;2023-04-01T18:26:22;5.43;;;3.70;;
4766;SDS011;2397;53.576;9.746;2023-04-01T18:28:53;4.97;;;4.03;;
4766;SDS011;2397;53.576;9.746;2023-04-01T18:31:25;5.23;;;3.90;;
4766;SDS011;2397;53.576;9.746;2023-04-01T18:34:10;4.37;;;3.97;;
4766;SDS011;2397;53.576;9.746;2023-04-01T18:42:06;4.97;;;3.87;;
4766;SDS011;2397;53.576;9.746;2023-04-01T18:44:48;6.13;;;4.30;;
4766;SDS011;2397;53.576;9.746;2023-04-01T18:47:30;4.83;;;4.17;;
4766;SDS011;2397;53.576;9.746;2023-04-01T18:56:01;5.93;;;4.50;;
4766;SDS011;2397;53.576;9.746;2023-04-01T19:01:26;7.00;;;5.80;;
4766;SDS011;2397;53.576;9.746;2023-04-01T19:06:53;6.60;;;4.13;;
4766;SDS011;2397;53.576;9.746;2023-04-01T19:09:26;4.53;;;4.10;;
4766;SDS011;2397;53.576;9.746;2023-04-01T19:12:03;5.23;;;4.40;;
4766;SDS011;2397;53.576;9.746;2023-04-01T19:17:32;7.07;;;4.70;;
4766;SDS011;2397;53.576;9.746;2023-04-01T19:20:16;6.67;;;4.13;;
4766;SDS011;2397;53.576;9.746;2023-04-01T19:25:57;6.50;;;4.67;;
4766;SDS011;2397;53.576;9.746;2023-04-01T19:31:11;9.13;;;5.47;;
4766;SDS011;2397;53.576;9.746;2023-04-01T19:34:10;8.30;;;5.00;;
4766;SDS011;2397;53.576;9.746;2023-04-01T19:37:11;10.80;;;5.87;;
4766;SDS011;2397;53.576;9.746;2023-04-01T19:43:19;4.10;;;3.57;;
4766;SDS011;2397;53.576;9.746;2023-04-01T19:45:54;5.90;;;3.40;;
4766;SDS011;2397;53.576;9.746;2023-04-01T19:53:45;4.90;;;3.57;;
4766;SDS011;2397;53.576;9.746;2023-04-01T19:56:23;7.30;;;3.53;;
4766;SDS011;2397;53.576;9.746;2023-04-01T19:59:02;4.93;;;3.70;;
4766;SDS011;2397;53.576;9.746;2023-04-01T20:01:57;3.20;;;2.90;;
4766;SDS011;2397;53.576;9.746;2023-04-01T20:04:48;4.83;;;3.47;;
4766;SDS011;2397;53.576;9.746;2023-04-01T20:07:24;5.70;;;3.33;;
4766;SDS011;2397;53.576;9.746;2023-04-01T20:18:15;6.30;;;4.50;;
4766;SDS011;2397;53.576;9.746;2023-04-01T20:23:52;5.80;;;4.10;;
4766;SDS011;2397;53.576;9.746;2023-04-01T20:26:32;4.73;;;3.23;;
4766;SDS011;2397;53.576;9.746;2023-04-01T20:32:11;5.10;;;3.17;;
4766;SDS011;2397;53.576;9.746;2023-04-01T20:34:57;4.80;;;3.40;;
4766;SDS011;2397;53.576;9.746;2023-04-01T20:37:48;4.60;;;3.20;;
4766;SDS011;2397;53.576;9.746;2023-04-01T20:40:31;4.93;;;3.40;;
4766;SDS011;2397;53.576;9.746;2023-04-01T20:51:12;4.20;;;3.03;;
4766;SDS011;2397;53.576;9.746;2023-04-01T20:53:42;10.23;;;3.20;;
4766;SDS011;2397;53.576;9.746;2023-04-01T21:13:46;3.70;;;3.10;;
4766;SDS011;2397;53.576;9.746;2023-04-01T21:16:28;3.67;;;2.87;;
4766;SDS011;2397;53.576;9.746;2023-04-01T21:19:15;4.97;;;2.87;;
4766;SDS011;2397;53.576;9.746;2023-04-01T21:21:57;5.00;;;3.40;;
4766;SDS011;2397;53.576;9.746;2023-04-01T21:24:43;13.07;;;3.40;;
4766;SDS011;2397;53.576;9.746;2023-04-01T21:27:25;4.53;;;3.50;;
4766;SDS011;2397;53.576;9.746;2023-04-01T21:38:25;4.40;;;3.23;;
4766;SDS011;2397;53.576;9.746;2023-04-01T21:44:38;4.60;;;3.10;;
4766;SDS011;2397;53.576;9.746;2023-04-01T21:58:51;8.83;;;3.10;;
4766;SDS011;2397;53.576;9.746;2023-04-01T22:04:42;6.20;;;3.17;;
4766;SDS011;2397;53.576;9.746;2023-04-01T22:07:20;8.00;;;3.33;;
4766;SDS011;2397;53.576;9.746;2023-04-01T22:09:52;4.83;;;3.00;;
4766;SDS011;2397;53.576;9.746;2023-04-01T22:12:31;12.40;;;2.80;;
4766;SDS011;2397;53.576;9.746;2023-04-01T22:18:05;4.67;;;2.20;;
4766;SDS011;2397;53.576;9.746;2023-04-01T22:20:42;3.50;;;2.40;;
4766;SDS011;2397;53.576;9.746;2023-04-01T22:26:05;4.20;;;2.47;;
4766;SDS011;2397;53.576;9.746;2023-04-01T22:29:03;2.23;;;1.80;;
4766;SDS011;2397;53.576;9.746;2023-04-01T22:31:38;4.27;;;2.67;;
4766;SDS011;2397;53.576;9.746;2023-04-01T22:34:22;3.17;;;1.97;;
4766;SDS011;2397;53.576;9.746;2023-04-01T22:37:08;3.20;;;2.40;;
4766;SDS011;2397;53.576;9.746;2023-04-01T22:42:43;6.80;;;2.00;;
4766;SDS011;2397;53.576;9.746;2023-04-01T22:56:27;5.00;;;2.60;;
4766;SDS011;2397;53.576;9.746;2023-04-01T22:59:00;2.90;;;2.00;;
4766;SDS011;2397;53.576;9.746;2023-04-01T23:01:36;11.03;;;2.40;;
4766;SDS011;2397;53.576;9.746;2023-04-01T23:04:12;2.40;;;2.20;;
4766;SDS011;2397;53.576;9.746;2023-04-01T23:06:46;3.73;;;2.43;;
4766;SDS011;2397;53.576;9.746;2023-04-01T23:11:55;5.07;;;2.60;;
4766;SDS011;2397;53.576;9.746;2023-04-01T23:14:32;8.03;;;2.00;;
4766;SDS011;2397;53.576;9.746;2023-04-01T23:25:30;2.43;;;2.23;;
4766;SDS011;2397;53.576;9.746;2023-04-01T23:36:41;14.63;;;1.60;;
4766;SDS011;2397;53.576;9.746;2023-04-01T23:41:55;6.70;;;2.00;;
4766;SDS011;2397;53.576;9.746;2023-04-01T23:44:25;9.57;;;2.83;;
4766;SDS011;2397;53.576;9.746;2023-04-01T23:46:54;5.63;;;2.10;;
4766;SDS011;2397;53.576;9.746;2023-04-01T23:49:39;6.03;;;2.00;;
4766;SDS011;2397;53.576;9.746;2023-04-01T23:52:26;3.20;;;1.80;;
4766;SDS011;2397;53.576;9.746;2023-04-01T23:54:57;4.20;;;1.87;;
4766;SDS011;2397;53.576;9.746;2023-04-01T23:57:31;4.37;;;1.77;;
